sensor_id;sensor_type;location;lat;lon;timestamp;P1;durP1;ratioP1;P2;durP2;ratioP2
81191;SDS011;70665;47.652;-2.730;2023-06-14T00:01:43;13.65;;;8.98;;
81191;SDS011;70665;47.652;-2.730;2023-06-14T00:04:10;14.52;;;9.40;;
81191;SDS011;70665;47.652;-2.730;2023-06-14T00:06:36;17.55;;;9.38;;
81191;SDS011;70665;47.652;-2.730;2023-06-14T00:09:03;13.55;;;8.40;;
81191;SDS011;70665;47.652;-2.730;2023-06-14T00:11:29;16.17;;;9.48;;
81191;SDS011;70665;47.652;-2.730;2023-06-14T00:13:58;15.98;;;9.90;;
81191;SDS011;70665;47.652;-2.730;2023-06-14T00:16:24;14.43;;;9.95;;
81191;SDS011;70665;47.652;-2.730;2023-06-14T00:18:49;17.05;;;9.50;;
81191;SDS011;70665;47.652;-2.730;2023-06-14T00:21:17;15.27;;;9.45;;
81191;SDS011;70665;47.652;-2.730;2023-06-14T00:23:44;16.85;;;9.98;;
81191;SDS011;70665;47.652;-2.730;2023-06-14T00:26:09;14.43;;;9.45;;
81191;SDS011;70665;47.652;-2.730;2023-06-14T00:28:35;16.00;;;10.75;;
81191;SDS011;70665;47.652;-2.730;2023-06-14T00:31:01;15.43;;;9.70;;
81191;SDS011;70665;47.652;-2.730;2023-06-14T00:33:26;16.45;;;9.88;;
81191;SDS011;70665;47.652;-2.730;2023-06-14T00:35:52;13.65;;;9.95;;
81191;SDS011;70665;47.652;-2.730;2023-06-14T00:38:20;16.65;;;10.82;;
81191;SDS011;70665;47.652;-2.730;2023-06-14T00:40:46;13.90;;;9.48;;
81191;SDS011;70665;47.652;-2.730;2023-06-14T00:43:12;14.48;;;10.18;;
81191;SDS011;70665;47.652;-2.730;2023-06-14T00:45:38;18.38;;;11.40;;
81191;SDS011;70665;47.652;-2.730;2023-06-14T00:48:04;16.95;;;10.93;;
81191;SDS011;70665;47.652;-2.730;2023-06-14T00:50:32;16.65;;;10.73;;
81191;SDS011;70665;47.652;-2.730;2023-06-14T00:52:58;18.55;;;11.50;;
81191;SDS011;70665;47.652;-2.730;2023-06-14T00:55:26;17.75;;;12.25;;
81191;SDS011;70665;47.652;-2.730;2023-06-14T00:57:52;19.20;;;11.80;;
81191;SDS011;70665;47.652;-2.730;2023-06-14T01:00:19;18.15;;;11.65;;
81191;SDS011;70665;47.652;-2.730;2023-06-14T01:02:45;21.27;;;12.52;;
81191;SDS011;70665;47.652;-2.730;2023-06-14T01:05:10;19.05;;;12.25;;
81191;SDS011;70665;47.652;-2.730;2023-06-14T01:07:52;23.52;;;12.75;;
81191;SDS011;70665;47.652;-2.730;2023-06-14T01:13:23;23.67;;;13.98;;
81191;SDS011;70665;47.652;-2.730;2023-06-14T01:15:54;21.30;;;12.75;;
81191;SDS011;70665;47.652;-2.730;2023-06-14T01:18:21;22.80;;;13.15;;
81191;SDS011;70665;47.652;-2.730;2023-06-14T01:20:49;20.95;;;13.48;;
81191;SDS011;70665;47.652;-2.730;2023-06-14T01:23:18;22.63;;;13.38;;
81191;SDS011;70665;47.652;-2.730;2023-06-14T01:25:46;20.42;;;12.82;;
81191;SDS011;70665;47.652;-2.730;2023-06-14T01:28:12;23.38;;;12.48;;
81191;SDS011;70665;47.652;-2.730;2023-06-14T01:30:41;23.25;;;13.57;;
81191;SDS011;70665;47.652;-2.730;2023-06-14T01:33:13;24.25;;;13.30;;
81191;SDS011;70665;47.652;-2.730;2023-06-14T01:35:44;20.88;;;13.35;;
81191;SDS011;70665;47.652;-2.730;2023-06-14T01:38:12;21.77;;;12.93;;
81191;SDS011;70665;47.652;-2.730;2023-06-14T01:40:39;21.60;;;13.70;;
81191;SDS011;70665;47.652;-2.730;2023-06-14T01:43:05;23.25;;;13.27;;
81191;SDS011;70665;47.652;-2.730;2023-06-14T01:45:32;25.35;;;15.00;;
81191;SDS011;70665;47.652;-2.730;2023-06-14T01:47:59;23.95;;;14.38;;
81191;SDS011;70665;47.652;-2.730;2023-06-14T01:50:28;27.05;;;15.60;;
81191;SDS011;70665;47.652;-2.730;2023-06-14T01:52:55;23.98;;;15.15;;
81191;SDS011;70665;47.652;-2.730;2023-06-14T01:55:20;25.25;;;15.23;;
81191;SDS011;70665;47.652;-2.730;2023-06-14T01:57:46;27.30;;;15.00;;
81191;SDS011;70665;47.652;-2.730;2023-06-14T02:02:39;26.80;;;14.90;;
81191;SDS011;70665;47.652;-2.730;2023-06-14T02:05:05;28.38;;;15.90;;
81191;SDS011;70665;47.652;-2.730;2023-06-14T02:07:32;26.65;;;15.93;;
81191;SDS011;70665;47.652;-2.730;2023-06-14T02:09:58;28.33;;;16.15;;
81191;SDS011;70665;47.652;-2.730;2023-06-14T02:12:24;30.70;;;16.92;;
81191;SDS011;70665;47.652;-2.730;2023-06-14T02:14:50;26.73;;;15.65;;
81191;SDS011;70665;47.652;-2.730;2023-06-14T02:17:16;25.88;;;16.42;;
81191;SDS011;70665;47.652;-2.730;2023-06-14T02:22:07;27.40;;;15.90;;
81191;SDS011;70665;47.652;-2.730;2023-06-14T02:27:00;33.33;;;17.98;;
81191;SDS011;70665;47.652;-2.730;2023-06-14T02:29:27;29.58;;;17.17;;
81191;SDS011;70665;47.652;-2.730;2023-06-14T02:31:52;29.02;;;16.27;;
81191;SDS011;70665;47.652;-2.730;2023-06-14T02:34:18;26.40;;;16.38;;
81191;SDS011;70665;47.652;-2.730;2023-06-14T02:36:45;28.23;;;17.17;;
81191;SDS011;70665;47.652;-2.730;2023-06-14T02:39:12;30.58;;;17.80;;
81191;SDS011;70665;47.652;-2.730;2023-06-14T02:41:38;29.65;;;17.10;;
81191;SDS011;70665;47.652;-2.730;2023-06-14T02:46:30;29.17;;;17.85;;
81191;SDS011;70665;47.652;-2.730;2023-06-14T02:51:21;33.28;;;17.33;;
81191;SDS011;70665;47.652;-2.730;2023-06-14T02:56:12;30.38;;;17.63;;
81191;SDS011;70665;47.652;-2.730;2023-06-14T03:01:05;31.15;;;17.80;;
81191;SDS011;70665;47.652;-2.730;2023-06-14T03:03:32;25.92;;;16.08;;
81191;SDS011;70665;47.652;-2.730;2023-06-14T03:05:58;30.38;;;17.20;;
81191;SDS011;70665;47.652;-2.730;2023-06-14T03:08:29;27.83;;;17.25;;
81191;SDS011;70665;47.652;-2.730;2023-06-14T03:10:56;30.70;;;17.55;;
81191;SDS011;70665;47.652;-2.730;2023-06-14T03:13:22;31.75;;;17.92;;
81191;SDS011;70665;47.652;-2.730;2023-06-14T03:15:48;29.40;;;17.25;;
81191;SDS011;70665;47.652;-2.730;2023-06-14T03:18:17;35.40;;;18.90;;
81191;SDS011;70665;47.652;-2.730;2023-06-14T03:20:44;29.20;;;18.13;;
81191;SDS011;70665;47.652;-2.730;2023-06-14T03:23:10;30.60;;;17.98;;
81191;SDS011;70665;47.652;-2.730;2023-06-14T03:25:36;32.45;;;19.05;;
81191;SDS011;70665;47.652;-2.730;2023-06-14T03:28:03;35.13;;;20.20;;
81191;SDS011;70665;47.652;-2.730;2023-06-14T03:30:30;32.95;;;19.17;;
81191;SDS011;70665;47.652;-2.730;2023-06-14T03:32:56;31.23;;;18.17;;
81191;SDS011;70665;47.652;-2.730;2023-06-14T03:35:23;36.03;;;20.52;;
81191;SDS011;70665;47.652;-2.730;2023-06-14T03:37:48;33.08;;;19.48;;
81191;SDS011;70665;47.652;-2.730;2023-06-14T03:40:15;33.33;;;20.13;;
81191;SDS011;70665;47.652;-2.730;2023-06-14T03:42:42;38.08;;;19.85;;
81191;SDS011;70665;47.652;-2.730;2023-06-14T03:45:08;37.38;;;21.35;;
81191;SDS011;70665;47.652;-2.730;2023-06-14T03:47:34;32.53;;;20.17;;
81191;SDS011;70665;47.652;-2.730;2023-06-14T03:50:03;34.65;;;19.65;;
81191;SDS011;70665;47.652;-2.730;2023-06-14T03:52:30;35.72;;;19.35;;
81191;SDS011;70665;47.652;-2.730;2023-06-14T03:54:56;33.92;;;20.10;;
81191;SDS011;70665;47.652;-2.730;2023-06-14T03:57:22;36.25;;;19.88;;
81191;SDS011;70665;47.652;-2.730;2023-06-14T03:59:48;36.13;;;20.13;;
81191;SDS011;70665;47.652;-2.730;2023-06-14T04:02:14;33.42;;;19.80;;
81191;SDS011;70665;47.652;-2.730;2023-06-14T04:04:41;33.50;;;18.73;;
81191;SDS011;70665;47.652;-2.730;2023-06-14T04:07:12;34.08;;;20.25;;
81191;SDS011;70665;47.652;-2.730;2023-06-14T04:09:38;33.40;;;19.25;;
81191;SDS011;70665;47.652;-2.730;2023-06-14T04:12:05;36.85;;;19.67;;
81191;SDS011;70665;47.652;-2.730;2023-06-14T04:14:31;36.60;;;19.98;;
81191;SDS011;70665;47.652;-2.730;2023-06-14T04:17:00;33.75;;;19.45;;
81191;SDS011;70665;47.652;-2.730;2023-06-14T04:19:26;33.65;;;19.20;;
81191;SDS011;70665;47.652;-2.730;2023-06-14T04:21:51;33.60;;;19.85;;
81191;SDS011;70665;47.652;-2.730;2023-06-14T04:24:17;39.80;;;20.90;;
81191;SDS011;70665;47.652;-2.730;2023-06-14T04:26:43;36.22;;;20.65;;
81191;SDS011;70665;47.652;-2.730;2023-06-14T04:29:10;37.50;;;20.90;;
81191;SDS011;70665;47.652;-2.730;2023-06-14T04:31:39;33.03;;;20.70;;
81191;SDS011;70665;47.652;-2.730;2023-06-14T04:34:05;33.42;;;20.88;;
81191;SDS011;70665;47.652;-2.730;2023-06-14T04:38:59;37.35;;;20.98;;
81191;SDS011;70665;47.652;-2.730;2023-06-14T04:41:25;36.33;;;21.80;;
81191;SDS011;70665;47.652;-2.730;2023-06-14T04:43:59;39.22;;;21.70;;
81191;SDS011;70665;47.652;-2.730;2023-06-14T04:46:29;39.05;;;22.35;;
81191;SDS011;70665;47.652;-2.730;2023-06-14T04:48:57;37.28;;;20.08;;
81191;SDS011;70665;47.652;-2.730;2023-06-14T04:51:27;36.08;;;21.70;;
81191;SDS011;70665;47.652;-2.730;2023-06-14T04:53:57;37.40;;;21.50;;
81191;SDS011;70665;47.652;-2.730;2023-06-14T04:56:24;37.88;;;23.02;;
81191;SDS011;70665;47.652;-2.730;2023-06-14T04:58:50;35.30;;;21.35;;
81191;SDS011;70665;47.652;-2.730;2023-06-14T05:01:17;37.08;;;20.77;;
81191;SDS011;70665;47.652;-2.730;2023-06-14T05:06:13;35.47;;;19.10;;
81191;SDS011;70665;47.652;-2.730;2023-06-14T05:08:39;39.50;;;22.00;;
81191;SDS011;70665;47.652;-2.730;2023-06-14T05:13:30;40.50;;;21.45;;
81191;SDS011;70665;47.652;-2.730;2023-06-14T05:15:57;37.85;;;22.38;;
81191;SDS011;70665;47.652;-2.730;2023-06-14T05:18:24;36.80;;;20.88;;
81191;SDS011;70665;47.652;-2.730;2023-06-14T05:20:50;36.53;;;21.27;;
81191;SDS011;70665;47.652;-2.730;2023-06-14T05:23:16;36.60;;;20.77;;
81191;SDS011;70665;47.652;-2.730;2023-06-14T05:28:08;36.72;;;20.58;;
81191;SDS011;70665;47.652;-2.730;2023-06-14T05:33:00;40.13;;;20.73;;
81191;SDS011;70665;47.652;-2.730;2023-06-14T05:37:52;33.33;;;19.13;;
81191;SDS011;70665;47.652;-2.730;2023-06-14T05:40:18;35.97;;;20.83;;
81191;SDS011;70665;47.652;-2.730;2023-06-14T05:42:45;36.35;;;20.35;;
81191;SDS011;70665;47.652;-2.730;2023-06-14T05:45:10;35.58;;;20.58;;
81191;SDS011;70665;47.652;-2.730;2023-06-14T05:47:36;33.80;;;20.05;;
81191;SDS011;70665;47.652;-2.730;2023-06-14T05:50:02;31.33;;;20.35;;
81191;SDS011;70665;47.652;-2.730;2023-06-14T05:52:28;33.58;;;19.67;;
81191;SDS011;70665;47.652;-2.730;2023-06-14T05:54:54;34.88;;;20.95;;
81191;SDS011;70665;47.652;-2.730;2023-06-14T05:57:20;35.35;;;20.05;;
81191;SDS011;70665;47.652;-2.730;2023-06-14T05:59:46;35.33;;;20.35;;
81191;SDS011;70665;47.652;-2.730;2023-06-14T06:02:11;38.67;;;20.25;;
81191;SDS011;70665;47.652;-2.730;2023-06-14T06:04:37;35.25;;;20.13;;
81191;SDS011;70665;47.652;-2.730;2023-06-14T06:07:02;35.25;;;21.05;;
81191;SDS011;70665;47.652;-2.730;2023-06-14T06:09:28;39.63;;;20.23;;
81191;SDS011;70665;47.652;-2.730;2023-06-14T06:11:55;30.90;;;19.65;;
81191;SDS011;70665;47.652;-2.730;2023-06-14T06:14:20;32.67;;;19.05;;
81191;SDS011;70665;47.652;-2.730;2023-06-14T06:16:46;33.65;;;20.05;;
81191;SDS011;70665;47.652;-2.730;2023-06-14T06:19:12;31.00;;;18.67;;
81191;SDS011;70665;47.652;-2.730;2023-06-14T06:21:37;33.65;;;19.80;;
81191;SDS011;70665;47.652;-2.730;2023-06-14T06:24:04;31.95;;;19.00;;
81191;SDS011;70665;47.652;-2.730;2023-06-14T06:26:30;34.33;;;20.15;;
81191;SDS011;70665;47.652;-2.730;2023-06-14T06:28:57;34.10;;;20.58;;
81191;SDS011;70665;47.652;-2.730;2023-06-14T06:31:23;33.83;;;19.90;;
81191;SDS011;70665;47.652;-2.730;2023-06-14T06:33:49;35.75;;;19.08;;
81191;SDS011;70665;47.652;-2.730;2023-06-14T06:36:15;31.40;;;18.48;;
81191;SDS011;70665;47.652;-2.730;2023-06-14T06:38:41;29.13;;;18.27;;
81191;SDS011;70665;47.652;-2.730;2023-06-14T06:41:07;31.20;;;19.80;;
81191;SDS011;70665;47.652;-2.730;2023-06-14T06:43:32;29.55;;;17.98;;
81191;SDS011;70665;47.652;-2.730;2023-06-14T06:45:58;28.85;;;17.75;;
81191;SDS011;70665;47.652;-2.730;2023-06-14T06:48:24;30.65;;;16.73;;
81191;SDS011;70665;47.652;-2.730;2023-06-14T06:50:49;29.75;;;17.52;;
81191;SDS011;70665;47.652;-2.730;2023-06-14T06:53:16;30.02;;;18.17;;
81191;SDS011;70665;47.652;-2.730;2023-06-14T06:55:43;28.27;;;17.75;;
81191;SDS011;70665;47.652;-2.730;2023-06-14T06:58:09;28.00;;;17.38;;
81191;SDS011;70665;47.652;-2.730;2023-06-14T07:00:34;31.55;;;17.08;;
81191;SDS011;70665;47.652;-2.730;2023-06-14T07:03:00;35.30;;;18.52;;
81191;SDS011;70665;47.652;-2.730;2023-06-14T07:05:26;27.50;;;16.52;;
81191;SDS011;70665;47.652;-2.730;2023-06-14T07:07:52;28.63;;;16.63;;
81191;SDS011;70665;47.652;-2.730;2023-06-14T07:10:17;26.08;;;15.50;;
81191;SDS011;70665;47.652;-2.730;2023-06-14T07:12:43;25.40;;;15.65;;
81191;SDS011;70665;47.652;-2.730;2023-06-14T07:15:09;25.52;;;15.77;;
81191;SDS011;70665;47.652;-2.730;2023-06-14T07:17:36;23.48;;;15.38;;
81191;SDS011;70665;47.652;-2.730;2023-06-14T07:20:02;23.45;;;15.63;;
81191;SDS011;70665;47.652;-2.730;2023-06-14T07:22:33;23.63;;;15.23;;
81191;SDS011;70665;47.652;-2.730;2023-06-14T07:24:58;22.05;;;15.23;;
81191;SDS011;70665;47.652;-2.730;2023-06-14T07:27:24;21.83;;;14.82;;
81191;SDS011;70665;47.652;-2.730;2023-06-14T07:29:49;23.70;;;15.43;;
81191;SDS011;70665;47.652;-2.730;2023-06-14T07:32:15;21.85;;;14.75;;
81191;SDS011;70665;47.652;-2.730;2023-06-14T07:34:41;25.40;;;15.30;;
81191;SDS011;70665;47.652;-2.730;2023-06-14T07:37:06;26.85;;;15.15;;
81191;SDS011;70665;47.652;-2.730;2023-06-14T07:39:32;25.77;;;16.02;;
81191;SDS011;70665;47.652;-2.730;2023-06-14T07:41:58;24.58;;;15.00;;
81191;SDS011;70665;47.652;-2.730;2023-06-14T07:44:23;21.98;;;14.07;;
81191;SDS011;70665;47.652;-2.730;2023-06-14T07:46:49;26.60;;;15.55;;
81191;SDS011;70665;47.652;-2.730;2023-06-14T07:49:15;19.88;;;12.85;;
81191;SDS011;70665;47.652;-2.730;2023-06-14T07:51:40;21.48;;;13.55;;
81191;SDS011;70665;47.652;-2.730;2023-06-14T07:54:06;23.42;;;14.10;;
81191;SDS011;70665;47.652;-2.730;2023-06-14T07:56:34;22.20;;;14.25;;
81191;SDS011;70665;47.652;-2.730;2023-06-14T07:59:00;22.02;;;14.45;;
81191;SDS011;70665;47.652;-2.730;2023-06-14T08:01:26;22.58;;;12.95;;
81191;SDS011;70665;47.652;-2.730;2023-06-14T08:03:52;22.80;;;14.13;;
81191;SDS011;70665;47.652;-2.730;2023-06-14T08:06:18;22.65;;;14.68;;
81191;SDS011;70665;47.652;-2.730;2023-06-14T08:08:44;22.75;;;15.18;;
81191;SDS011;70665;47.652;-2.730;2023-06-14T08:11:09;23.13;;;14.32;;
81191;SDS011;70665;47.652;-2.730;2023-06-14T08:13:35;27.90;;;15.48;;
81191;SDS011;70665;47.652;-2.730;2023-06-14T08:16:01;23.10;;;15.40;;
81191;SDS011;70665;47.652;-2.730;2023-06-14T08:18:29;21.92;;;14.90;;
81191;SDS011;70665;47.652;-2.730;2023-06-14T08:20:55;22.13;;;13.98;;
81191;SDS011;70665;47.652;-2.730;2023-06-14T08:23:22;20.63;;;13.23;;
81191;SDS011;70665;47.652;-2.730;2023-06-14T08:25:48;20.30;;;12.77;;
81191;SDS011;70665;47.652;-2.730;2023-06-14T08:28:14;17.38;;;12.27;;
81191;SDS011;70665;47.652;-2.730;2023-06-14T08:30:40;17.35;;;11.77;;
81191;SDS011;70665;47.652;-2.730;2023-06-14T08:33:07;20.88;;;13.43;;
81191;SDS011;70665;47.652;-2.730;2023-06-14T08:35:33;18.42;;;12.68;;
81191;SDS011;70665;47.652;-2.730;2023-06-14T08:38:02;20.45;;;12.70;;
81191;SDS011;70665;47.652;-2.730;2023-06-14T08:40:28;19.33;;;13.32;;
81191;SDS011;70665;47.652;-2.730;2023-06-14T08:42:55;18.30;;;12.05;;
81191;SDS011;70665;47.652;-2.730;2023-06-14T08:45:21;17.38;;;12.48;;
81191;SDS011;70665;47.652;-2.730;2023-06-14T08:47:48;17.45;;;13.15;;
81191;SDS011;70665;47.652;-2.730;2023-06-14T08:50:22;20.88;;;12.65;;
81191;SDS011;70665;47.652;-2.730;2023-06-14T08:52:53;19.40;;;11.98;;
81191;SDS011;70665;47.652;-2.730;2023-06-14T08:55:22;19.05;;;12.52;;
81191;SDS011;70665;47.652;-2.730;2023-06-14T08:57:50;19.88;;;12.90;;
81191;SDS011;70665;47.652;-2.730;2023-06-14T09:00:18;16.90;;;11.23;;
81191;SDS011;70665;47.652;-2.730;2023-06-14T09:02:46;23.45;;;13.23;;
81191;SDS011;70665;47.652;-2.730;2023-06-14T09:05:12;17.92;;;11.57;;
81191;SDS011;70665;47.652;-2.730;2023-06-14T09:07:43;19.30;;;12.40;;
81191;SDS011;70665;47.652;-2.730;2023-06-14T09:10:10;20.92;;;12.45;;
81191;SDS011;70665;47.652;-2.730;2023-06-14T09:12:38;19.20;;;12.07;;
81191;SDS011;70665;47.652;-2.730;2023-06-14T09:15:05;16.33;;;10.73;;
81191;SDS011;70665;47.652;-2.730;2023-06-14T09:17:33;17.15;;;12.52;;
81191;SDS011;70665;47.652;-2.730;2023-06-14T09:20:00;17.80;;;11.43;;
81191;SDS011;70665;47.652;-2.730;2023-06-14T09:22:30;18.27;;;12.23;;
81191;SDS011;70665;47.652;-2.730;2023-06-14T09:24:56;16.70;;;11.10;;
81191;SDS011;70665;47.652;-2.730;2023-06-14T09:27:22;15.27;;;10.65;;
81191;SDS011;70665;47.652;-2.730;2023-06-14T09:29:47;15.95;;;12.02;;
81191;SDS011;70665;47.652;-2.730;2023-06-14T09:32:13;18.90;;;11.80;;
81191;SDS011;70665;47.652;-2.730;2023-06-14T09:34:39;18.25;;;11.40;;
81191;SDS011;70665;47.652;-2.730;2023-06-14T09:37:05;17.75;;;10.98;;
81191;SDS011;70665;47.652;-2.730;2023-06-14T09:39:31;14.98;;;11.40;;
81191;SDS011;70665;47.652;-2.730;2023-06-14T09:41:57;16.50;;;11.32;;
81191;SDS011;70665;47.652;-2.730;2023-06-14T09:44:22;18.67;;;11.45;;
81191;SDS011;70665;47.652;-2.730;2023-06-14T09:46:53;17.45;;;10.95;;
81191;SDS011;70665;47.652;-2.730;2023-06-14T09:49:20;17.30;;;11.35;;
81191;SDS011;70665;47.652;-2.730;2023-06-14T09:51:46;20.17;;;12.18;;
81191;SDS011;70665;47.652;-2.730;2023-06-14T09:54:16;16.00;;;11.13;;
81191;SDS011;70665;47.652;-2.730;2023-06-14T09:56:47;15.02;;;10.02;;
81191;SDS011;70665;47.652;-2.730;2023-06-14T09:59:16;16.00;;;10.27;;
81191;SDS011;70665;47.652;-2.730;2023-06-14T10:01:46;14.90;;;10.82;;
81191;SDS011;70665;47.652;-2.730;2023-06-14T10:04:13;16.15;;;11.35;;
81191;SDS011;70665;47.652;-2.730;2023-06-14T10:06:44;14.02;;;10.60;;
81191;SDS011;70665;47.652;-2.730;2023-06-14T10:09:11;14.43;;;10.32;;
81191;SDS011;70665;47.652;-2.730;2023-06-14T10:11:37;12.70;;;9.35;;
81191;SDS011;70665;47.652;-2.730;2023-06-14T10:14:08;17.17;;;11.45;;
81191;SDS011;70665;47.652;-2.730;2023-06-14T10:22:06;15.45;;;10.40;;
81191;SDS011;70665;47.652;-2.730;2023-06-14T10:24:42;16.15;;;11.70;;
81191;SDS011;70665;47.652;-2.730;2023-06-14T10:27:09;18.70;;;11.93;;
81191;SDS011;70665;47.652;-2.730;2023-06-14T10:32:23;15.65;;;10.18;;
81191;SDS011;70665;47.652;-2.730;2023-06-14T10:34:53;16.08;;;10.23;;
81191;SDS011;70665;47.652;-2.730;2023-06-14T10:37:24;15.93;;;10.60;;
81191;SDS011;70665;47.652;-2.730;2023-06-14T10:39:50;13.18;;;9.80;;
81191;SDS011;70665;47.652;-2.730;2023-06-14T10:42:16;16.88;;;10.60;;
81191;SDS011;70665;47.652;-2.730;2023-06-14T10:50:04;15.20;;;9.57;;
81191;SDS011;70665;47.652;-2.730;2023-06-14T10:52:32;15.93;;;10.95;;
81191;SDS011;70665;47.652;-2.730;2023-06-14T10:57:34;14.63;;;10.27;;
81191;SDS011;70665;47.652;-2.730;2023-06-14T11:00:02;17.25;;;9.93;;
81191;SDS011;70665;47.652;-2.730;2023-06-14T11:11:20;13.82;;;10.60;;
81191;SDS011;70665;47.652;-2.730;2023-06-14T11:13:48;14.98;;;10.45;;
81191;SDS011;70665;47.652;-2.730;2023-06-14T11:16:16;18.95;;;10.68;;
81191;SDS011;70665;47.652;-2.730;2023-06-14T11:18:44;15.70;;;11.45;;
81191;SDS011;70665;47.652;-2.730;2023-06-14T11:21:10;15.75;;;10.93;;
81191;SDS011;70665;47.652;-2.730;2023-06-14T11:23:36;16.20;;;10.45;;
81191;SDS011;70665;47.652;-2.730;2023-06-14T11:26:02;14.05;;;11.00;;
81191;SDS011;70665;47.652;-2.730;2023-06-14T11:28:36;13.73;;;10.00;;
81191;SDS011;70665;47.652;-2.730;2023-06-14T11:31:03;14.00;;;10.23;;
81191;SDS011;70665;47.652;-2.730;2023-06-14T11:33:29;14.05;;;10.65;;
81191;SDS011;70665;47.652;-2.730;2023-06-14T11:35:54;14.45;;;10.43;;
81191;SDS011;70665;47.652;-2.730;2023-06-14T11:38:20;13.45;;;10.40;;
81191;SDS011;70665;47.652;-2.730;2023-06-14T11:40:46;12.73;;;9.82;;
81191;SDS011;70665;47.652;-2.730;2023-06-14T11:43:11;15.85;;;11.02;;
81191;SDS011;70665;47.652;-2.730;2023-06-14T11:45:39;12.15;;;10.43;;
81191;SDS011;70665;47.652;-2.730;2023-06-14T11:48:04;14.15;;;10.35;;
81191;SDS011;70665;47.652;-2.730;2023-06-14T11:50:31;13.02;;;9.73;;
81191;SDS011;70665;47.652;-2.730;2023-06-14T11:53:01;13.43;;;10.43;;
81191;SDS011;70665;47.652;-2.730;2023-06-14T11:55:38;13.55;;;9.40;;
81191;SDS011;70665;47.652;-2.730;2023-06-14T11:58:05;13.73;;;9.45;;
81191;SDS011;70665;47.652;-2.730;2023-06-14T12:00:31;14.95;;;10.07;;
81191;SDS011;70665;47.652;-2.730;2023-06-14T12:02:57;13.55;;;9.98;;
81191;SDS011;70665;47.652;-2.730;2023-06-14T12:05:24;13.38;;;9.88;;
81191;SDS011;70665;47.652;-2.730;2023-06-14T12:07:57;12.35;;;9.85;;
81191;SDS011;70665;47.652;-2.730;2023-06-14T12:10:25;13.57;;;10.40;;
81191;SDS011;70665;47.652;-2.730;2023-06-14T12:12:50;13.52;;;9.82;;
81191;SDS011;70665;47.652;-2.730;2023-06-14T12:15:16;13.98;;;9.55;;
81191;SDS011;70665;47.652;-2.730;2023-06-14T12:17:42;14.63;;;10.10;;
81191;SDS011;70665;47.652;-2.730;2023-06-14T12:22:39;12.30;;;10.07;;
81191;SDS011;70665;47.652;-2.730;2023-06-14T12:25:22;14.10;;;10.30;;
81191;SDS011;70665;47.652;-2.730;2023-06-14T12:27:52;12.30;;;8.77;;
81191;SDS011;70665;47.652;-2.730;2023-06-14T12:30:18;12.70;;;9.43;;
81191;SDS011;70665;47.652;-2.730;2023-06-14T12:32:44;11.93;;;9.50;;
81191;SDS011;70665;47.652;-2.730;2023-06-14T12:35:10;13.70;;;9.93;;
81191;SDS011;70665;47.652;-2.730;2023-06-14T12:37:36;11.57;;;8.95;;
81191;SDS011;70665;47.652;-2.730;2023-06-14T12:40:02;12.50;;;9.40;;
81191;SDS011;70665;47.652;-2.730;2023-06-14T12:42:32;11.95;;;8.80;;
81191;SDS011;70665;47.652;-2.730;2023-06-14T12:44:58;10.30;;;8.13;;
81191;SDS011;70665;47.652;-2.730;2023-06-14T12:47:24;16.65;;;9.70;;
81191;SDS011;70665;47.652;-2.730;2023-06-14T12:49:50;13.13;;;9.48;;
81191;SDS011;70665;47.652;-2.730;2023-06-14T12:52:16;18.88;;;9.75;;
81191;SDS011;70665;47.652;-2.730;2023-06-14T12:54:42;14.68;;;9.00;;
81191;SDS011;70665;47.652;-2.730;2023-06-14T12:57:07;14.45;;;8.35;;
81191;SDS011;70665;47.652;-2.730;2023-06-14T12:59:34;15.20;;;8.52;;
81191;SDS011;70665;47.652;-2.730;2023-06-14T13:02:13;14.15;;;8.32;;
81191;SDS011;70665;47.652;-2.730;2023-06-14T13:04:40;10.98;;;8.43;;
81191;SDS011;70665;47.652;-2.730;2023-06-14T13:07:05;12.93;;;8.77;;
81191;SDS011;70665;47.652;-2.730;2023-06-14T13:09:31;10.07;;;7.88;;
81191;SDS011;70665;47.652;-2.730;2023-06-14T13:11:57;9.80;;;7.15;;
81191;SDS011;70665;47.652;-2.730;2023-06-14T13:14:22;13.32;;;8.20;;
81191;SDS011;70665;47.652;-2.730;2023-06-14T13:16:48;10.80;;;8.15;;
81191;SDS011;70665;47.652;-2.730;2023-06-14T13:19:14;10.18;;;7.70;;
81191;SDS011;70665;47.652;-2.730;2023-06-14T13:21:39;9.00;;;7.20;;
81191;SDS011;70665;47.652;-2.730;2023-06-14T13:24:05;11.68;;;7.57;;
81191;SDS011;70665;47.652;-2.730;2023-06-14T13:26:32;14.18;;;8.43;;
81191;SDS011;70665;47.652;-2.730;2023-06-14T13:28:58;9.32;;;7.18;;
81191;SDS011;70665;47.652;-2.730;2023-06-14T13:31:24;9.38;;;7.35;;
81191;SDS011;70665;47.652;-2.730;2023-06-14T13:33:50;11.27;;;7.40;;
81191;SDS011;70665;47.652;-2.730;2023-06-14T13:36:15;10.02;;;7.30;;
81191;SDS011;70665;47.652;-2.730;2023-06-14T13:38:41;10.82;;;7.18;;
81191;SDS011;70665;47.652;-2.730;2023-06-14T13:41:07;12.63;;;7.18;;
81191;SDS011;70665;47.652;-2.730;2023-06-14T13:43:33;8.70;;;6.43;;
81191;SDS011;70665;47.652;-2.730;2023-06-14T13:45:59;9.25;;;7.38;;
81191;SDS011;70665;47.652;-2.730;2023-06-14T13:48:25;7.32;;;6.53;;
81191;SDS011;70665;47.652;-2.730;2023-06-14T13:50:51;9.82;;;6.75;;
81191;SDS011;70665;47.652;-2.730;2023-06-14T13:53:16;10.65;;;7.50;;
81191;SDS011;70665;47.652;-2.730;2023-06-14T13:55:42;10.20;;;7.18;;
81191;SDS011;70665;47.652;-2.730;2023-06-14T13:58:08;9.98;;;6.90;;
81191;SDS011;70665;47.652;-2.730;2023-06-14T14:00:34;9.27;;;6.88;;
81191;SDS011;70665;47.652;-2.730;2023-06-14T14:03:02;10.77;;;6.72;;
81191;SDS011;70665;47.652;-2.730;2023-06-14T14:05:28;12.07;;;7.00;;
81191;SDS011;70665;47.652;-2.730;2023-06-14T14:07:55;11.32;;;6.10;;
81191;SDS011;70665;47.652;-2.730;2023-06-14T14:10:22;12.15;;;6.82;;
81191;SDS011;70665;47.652;-2.730;2023-06-14T14:12:48;8.35;;;6.35;;
81191;SDS011;70665;47.652;-2.730;2023-06-14T14:15:14;11.27;;;6.57;;
81191;SDS011;70665;47.652;-2.730;2023-06-14T14:17:40;10.32;;;5.93;;
81191;SDS011;70665;47.652;-2.730;2023-06-14T14:20:06;10.82;;;6.15;;
81191;SDS011;70665;47.652;-2.730;2023-06-14T14:22:32;9.90;;;6.53;;
81191;SDS011;70665;47.652;-2.730;2023-06-14T14:24:58;8.32;;;5.75;;
81191;SDS011;70665;47.652;-2.730;2023-06-14T14:27:23;8.77;;;5.82;;
81191;SDS011;70665;47.652;-2.730;2023-06-14T14:29:49;8.82;;;5.57;;
81191;SDS011;70665;47.652;-2.730;2023-06-14T14:32:15;10.55;;;6.15;;
81191;SDS011;70665;47.652;-2.730;2023-06-14T14:34:40;11.43;;;6.63;;
81191;SDS011;70665;47.652;-2.730;2023-06-14T14:37:06;9.10;;;5.25;;
81191;SDS011;70665;47.652;-2.730;2023-06-14T14:39:32;14.90;;;6.28;;
81191;SDS011;70665;47.652;-2.730;2023-06-14T14:41:58;7.15;;;5.45;;
81191;SDS011;70665;47.652;-2.730;2023-06-14T14:44:23;8.48;;;6.22;;
81191;SDS011;70665;47.652;-2.730;2023-06-14T14:46:49;7.35;;;5.70;;
81191;SDS011;70665;47.652;-2.730;2023-06-14T14:49:15;6.93;;;5.60;;
81191;SDS011;70665;47.652;-2.730;2023-06-14T14:51:41;6.60;;;5.03;;
81191;SDS011;70665;47.652;-2.730;2023-06-14T14:54:08;9.48;;;5.57;;
81191;SDS011;70665;47.652;-2.730;2023-06-14T14:56:35;10.13;;;5.50;;
81191;SDS011;70665;47.652;-2.730;2023-06-14T14:59:03;9.57;;;5.30;;
81191;SDS011;70665;47.652;-2.730;2023-06-14T15:01:30;8.27;;;5.68;;
81191;SDS011;70665;47.652;-2.730;2023-06-14T15:03:57;10.73;;;5.60;;
81191;SDS011;70665;47.652;-2.730;2023-06-14T15:06:24;9.52;;;5.28;;
81191;SDS011;70665;47.652;-2.730;2023-06-14T15:08:51;7.63;;;5.43;;
81191;SDS011;70665;47.652;-2.730;2023-06-14T15:11:18;6.32;;;5.13;;
81191;SDS011;70665;47.652;-2.730;2023-06-14T15:13:46;9.65;;;5.32;;